OMDB/DXB METAR and TAF weather

Enter ICAO airport designator
Station Type Date Time Source
OMDB METAR 2022/06/27 17:00 UTC NOAA

OMDB 271700Z 32008KT 270V350 CAVOK 36/28 Q0997 NOSIG


Station Type Date Time Source
OMDB Decoded METAR 2022/06/27 17:00 UTC NOAA

Dubai International Airport, United Arab Emirates (OMDB) 25-15N 055-20E 5M
Jun 27, 2022 - 01:00 PM EDT / 2022.06.27 1700 UTC
Wind: from the NW (320 degrees) at 9 MPH (8 KT) (direction variable):0
Visibility: greater than 7 mile(s):0
Temperature: 96 F (36 C)
Heat index: 118.9 F (48.3 C):1
Dew Point: 82 F (28 C)
Relative Humidity: 63%
Pressure (altimeter): 29.44 in. Hg (0997 hPa)
ob: OMDB 271700Z 32008KT 270V350 CAVOK 36/28 Q0997 NOSIG
cycle: 17

Station Type Date Time Source
OMDB TAF 2022/06/27 18:55 UTC NOAA

TAF OMDB 271700Z 2718/2900 30010KT 8000 NSC
BECMG 2719/2721 15005KT PROB30 2723/2804 4000 HZ
BECMG 2808/2810 31012KT
BECMG 2817/2819 VRB02KT

Example: see airport list